createdAt,value
2018-05-15T00:00:11.807Z,1008.44
2018-05-15T00:00:37.946Z,1008.42
2018-05-15T00:01:04.136Z,1008.44
2018-05-15T00:01:30.372Z,1008.43
2018-05-15T00:01:56.598Z,1008.43
2018-05-15T00:02:22.979Z,1008.44
2018-05-15T00:02:49.245Z,1008.4
2018-05-15T00:03:15.498Z,1008.39
2018-05-15T00:03:41.593Z,1008.41
2018-05-15T00:04:07.749Z,1008.42
2018-05-15T00:04:33.878Z,1008.4
2018-05-15T00:05:00.060Z,1008.38
2018-05-15T00:05:26.208Z,1008.4
2018-05-15T00:05:52.532Z,1008.41
2018-05-15T00:06:18.610Z,1008.4
2018-05-15T00:06:44.773Z,1008.39
2018-05-15T00:07:11.034Z,1008.38
2018-05-15T00:07:37.267Z,1008.39
2018-05-15T00:08:03.450Z,1008.41
2018-05-15T00:08:29.610Z,1008.37
2018-05-15T00:08:55.834Z,1008.4
2018-05-15T00:09:22.012Z,1008.38
2018-05-15T00:09:48.248Z,1008.42
2018-05-15T00:10:14.426Z,1008.41
2018-05-15T00:10:40.683Z,1008.36
2018-05-15T00:11:06.797Z,1008.39
2018-05-15T00:11:32.949Z,1008.38
2018-05-15T00:11:59.269Z,1008.38
2018-05-15T00:12:25.392Z,1008.37
2018-05-15T00:12:51.616Z,1008.39
2018-05-15T00:13:17.794Z,1008.4
2018-05-15T00:13:43.983Z,1008.38
2018-05-15T00:14:10.119Z,1008.39
2018-05-15T00:14:36.299Z,1008.39
2018-05-15T00:15:02.646Z,1008.45
2018-05-15T00:15:28.750Z,1008.47
2018-05-15T00:15:54.920Z,1008.45
2018-05-15T00:16:21.039Z,1008.46
2018-05-15T00:16:47.182Z,1008.47
2018-05-15T00:17:13.385Z,1008.45
2018-05-15T00:17:39.582Z,1008.44
2018-05-15T00:18:05.829Z,1008.47
2018-05-15T00:18:31.917Z,1008.46
2018-05-15T00:18:58.047Z,1008.48
2018-05-15T00:19:24.191Z,1008.45
2018-05-15T00:19:50.320Z,1008.5
2018-05-15T00:20:16.492Z,1008.45
2018-05-15T00:20:42.620Z,1008.48
2018-05-15T00:21:08.825Z,1008.46
2018-05-15T00:21:35.000Z,1008.44
2018-05-15T00:22:01.147Z,1008.46
2018-05-15T00:22:27.310Z,1008.48
2018-05-15T00:22:53.590Z,1008.48
2018-05-15T00:23:19.740Z,1008.49
2018-05-15T00:23:46.055Z,1008.47
2018-05-15T00:24:12.303Z,1008.49
2018-05-15T00:24:38.514Z,1008.47
2018-05-15T00:25:04.647Z,1008.48
2018-05-15T00:25:30.891Z,1008.5
2018-05-15T00:25:57.232Z,1008.51
2018-05-15T00:26:23.393Z,1008.49
2018-05-15T00:26:49.522Z,1008.5
2018-05-15T00:27:15.648Z,1008.52
2018-05-15T00:27:41.857Z,1008.49
2018-05-15T00:28:08.056Z,1008.52
2018-05-15T00:28:34.206Z,1008.53
2018-05-15T00:29:00.348Z,1008.51
2018-05-15T00:29:26.601Z,1008.51
2018-05-15T00:29:52.848Z,1008.55
2018-05-15T00:30:19.051Z,1008.56
2018-05-15T00:30:45.337Z,1008.56
2018-05-15T00:31:11.466Z,1008.49
2018-05-15T00:31:37.860Z,1008.52
2018-05-15T00:32:03.998Z,1008.55
2018-05-15T00:32:30.147Z,1008.58
2018-05-15T00:32:56.362Z,1008.57
2018-05-15T00:33:22.496Z,1008.58
2018-05-15T00:33:48.659Z,1008.55
2018-05-15T00:34:14.808Z,1008.53
2018-05-15T00:34:40.940Z,1008.54
2018-05-15T00:35:07.136Z,1008.53
2018-05-15T00:35:33.252Z,1008.55
2018-05-15T00:35:59.401Z,1008.58
2018-05-15T00:36:25.529Z,1008.56
2018-05-15T00:36:51.655Z,1008.56
2018-05-15T00:37:17.825Z,1008.61
2018-05-15T00:37:43.950Z,1008.58
2018-05-15T00:38:10.099Z,1008.53
2018-05-15T00:38:36.247Z,1008.56
2018-05-15T00:39:02.395Z,1008.57
2018-05-15T00:39:28.521Z,1008.54
2018-05-15T00:39:54.646Z,1008.57
2018-05-15T00:40:20.772Z,1008.56
2018-05-15T00:40:46.919Z,1008.54
2018-05-15T00:41:13.043Z,1008.56
2018-05-15T00:41:39.169Z,1008.58
2018-05-15T00:42:05.298Z,1008.56
2018-05-15T00:42:31.421Z,1008.57
2018-05-15T00:42:57.566Z,1008.55
2018-05-15T00:43:23.693Z,1008.58
2018-05-15T00:43:49.838Z,1008.53
2018-05-15T00:44:15.969Z,1008.57
2018-05-15T00:44:42.105Z,1008.58
2018-05-15T00:45:08.229Z,1008.57
2018-05-15T00:45:34.353Z,1008.56
2018-05-15T00:46:00.482Z,1008.56
2018-05-15T00:46:26.628Z,1008.59
2018-05-15T00:46:52.776Z,1008.59
2018-05-15T00:47:18.922Z,1008.57
2018-05-15T00:47:45.070Z,1008.58
2018-05-15T00:48:11.196Z,1008.57
2018-05-15T00:48:37.321Z,1008.57
2018-05-15T00:49:03.468Z,1008.55
2018-05-15T00:49:29.599Z,1008.54
2018-05-15T00:49:55.765Z,1008.58
2018-05-15T00:50:21.908Z,1008.58
2018-05-15T00:50:48.071Z,1008.55
2018-05-15T00:51:14.214Z,1008.57
2018-05-15T00:51:40.357Z,1008.55
2018-05-15T00:52:06.494Z,1008.57
2018-05-15T00:52:32.645Z,1008.55
2018-05-15T00:52:58.783Z,1008.6
2018-05-15T00:53:24.914Z,1008.57
2018-05-15T00:53:51.058Z,1008.57
2018-05-15T00:54:17.206Z,1008.6
2018-05-15T00:54:43.352Z,1008.61
2018-05-15T00:55:09.487Z,1008.6
2018-05-15T00:55:35.616Z,1008.61
2018-05-15T00:56:01.762Z,1008.66
2018-05-15T00:56:27.928Z,1008.62
2018-05-15T00:56:54.067Z,1008.63
2018-05-15T00:57:20.212Z,1008.61
2018-05-15T00:57:46.353Z,1008.64
2018-05-15T00:58:12.491Z,1008.62
2018-05-15T00:58:38.629Z,1008.61
2018-05-15T00:59:04.772Z,1008.61
2018-05-15T00:59:30.932Z,1008.65
2018-05-15T00:59:57.078Z,1008.65
2018-05-15T01:00:23.217Z,1008.61
2018-05-15T01:00:49.357Z,1008.65
2018-05-15T01:01:15.502Z,1008.63
2018-05-15T01:01:41.636Z,1008.62
2018-05-15T01:02:07.764Z,1008.64
2018-05-15T01:02:33.905Z,1008.63
2018-05-15T01:03:00.042Z,1008.63
2018-05-15T01:03:26.200Z,1008.63
2018-05-15T01:03:52.339Z,1008.67
2018-05-15T01:04:18.498Z,1008.64
2018-05-15T01:04:44.671Z,1008.65
2018-05-15T01:05:10.836Z,1008.63
2018-05-15T01:05:36.980Z,1008.63
2018-05-15T01:06:03.143Z,1008.66
2018-05-15T01:06:29.284Z,1008.6
2018-05-15T01:06:55.446Z,1008.65
2018-05-15T01:07:21.588Z,1008.64
2018-05-15T01:07:47.721Z,1008.63
2018-05-15T01:08:13.864Z,1008.65
2018-05-15T01:08:40.001Z,1008.66
2018-05-15T01:09:06.140Z,1008.61
2018-05-15T01:09:32.278Z,1008.65
2018-05-15T01:09:58.422Z,1008.63
2018-05-15T01:10:24.564Z,1008.62
2018-05-15T01:10:50.720Z,1008.65
2018-05-15T01:11:16.857Z,1008.66
2018-05-15T01:11:43.004Z,1008.66
2018-05-15T01:12:09.148Z,1008.68
2018-05-15T01:12:35.314Z,1008.66
2018-05-15T01:13:01.452Z,1008.64
2018-05-15T01:13:27.594Z,1008.64
2018-05-15T01:13:53.740Z,1008.64
2018-05-15T01:14:19.878Z,1008.63
2018-05-15T01:14:46.045Z,1008.61
2018-05-15T01:15:12.183Z,1008.63
2018-05-15T01:15:38.319Z,1008.63
2018-05-15T01:16:04.463Z,1008.61
2018-05-15T01:16:30.617Z,1008.59
2018-05-15T01:16:56.766Z,1008.62
2018-05-15T01:17:22.938Z,1008.63
2018-05-15T01:17:49.093Z,1008.64
2018-05-15T01:18:15.234Z,1008.63
2018-05-15T01:18:41.375Z,1008.64
2018-05-15T01:19:07.540Z,1008.62
2018-05-15T01:19:33.678Z,1008.62
2018-05-15T01:19:59.815Z,1008.64
2018-05-15T01:20:25.985Z,1008.63
2018-05-15T01:20:52.149Z,1008.62
2018-05-15T01:21:18.292Z,1008.66
2018-05-15T01:21:44.469Z,1008.63
2018-05-15T01:22:10.608Z,1008.62
2018-05-15T01:22:36.748Z,1008.64
2018-05-15T01:23:02.888Z,1008.62
2018-05-15T01:23:29.026Z,1008.62
2018-05-15T01:23:55.166Z,1008.62
2018-05-15T01:24:21.331Z,1008.6
2018-05-15T01:24:47.471Z,1008.64
2018-05-15T01:25:13.608Z,1008.61
2018-05-15T01:25:39.755Z,1008.61
2018-05-15T01:26:05.891Z,1008.62
2018-05-15T01:26:32.032Z,1008.65
2018-05-15T01:26:58.168Z,1008.64
2018-05-15T01:27:24.335Z,1008.61
2018-05-15T01:27:50.529Z,1008.6
2018-05-15T01:28:16.663Z,1008.6
2018-05-15T01:28:42.806Z,1008.62
2018-05-15T01:29:08.969Z,1008.66
2018-05-15T01:29:35.105Z,1008.66
2018-05-15T01:30:01.248Z,1008.62
2018-05-15T01:30:27.436Z,1008.62
2018-05-15T01:30:53.571Z,1008.65
2018-05-15T01:31:19.716Z,1008.61
2018-05-15T01:31:45.903Z,1008.66
2018-05-15T01:32:12.057Z,1008.65
2018-05-15T01:32:38.226Z,1008.64
2018-05-15T01:33:04.369Z,1008.67
2018-05-15T01:33:30.529Z,1008.69
2018-05-15T01:33:56.667Z,1008.64
2018-05-15T01:34:22.811Z,1008.68
2018-05-15T01:34:48.960Z,1008.65
2018-05-15T01:35:15.097Z,1008.63
2018-05-15T01:35:41.265Z,1008.67
2018-05-15T01:36:07.404Z,1008.66
2018-05-15T01:36:33.565Z,1008.67
2018-05-15T01:36:59.703Z,1008.7
2018-05-15T01:37:25.840Z,1008.63
2018-05-15T01:37:51.988Z,1008.65
2018-05-15T01:38:18.145Z,1008.67
2018-05-15T01:38:44.313Z,1008.68
2018-05-15T01:39:10.447Z,1008.7
2018-05-15T01:39:36.607Z,1008.66
2018-05-15T01:40:02.748Z,1008.65
2018-05-15T01:40:28.889Z,1008.67
2018-05-15T01:40:55.020Z,1008.68
2018-05-15T01:41:21.158Z,1008.66
2018-05-15T01:41:47.303Z,1008.68
2018-05-15T01:42:13.469Z,1008.66
2018-05-15T01:42:39.620Z,1008.69
2018-05-15T01:43:05.774Z,1008.63
2018-05-15T01:43:31.907Z,1008.67
2018-05-15T01:43:58.043Z,1008.67
2018-05-15T01:44:24.181Z,1008.65
2018-05-15T01:44:50.319Z,1008.67
2018-05-15T01:45:16.460Z,1008.65
2018-05-15T01:45:42.595Z,1008.65
2018-05-15T01:46:08.737Z,1008.69
2018-05-15T01:46:34.883Z,1008.65
2018-05-15T01:47:01.046Z,1008.66
2018-05-15T01:47:27.188Z,1008.73
2018-05-15T01:47:53.330Z,1008.69
2018-05-15T01:48:19.468Z,1008.64
2018-05-15T01:48:45.602Z,1008.66
2018-05-15T01:49:11.752Z,1008.68
2018-05-15T01:49:37.894Z,1008.67
2018-05-15T01:50:04.028Z,1008.67
2018-05-15T01:50:30.171Z,1008.66
2018-05-15T01:50:56.309Z,1008.63
2018-05-15T01:51:22.474Z,1008.65
2018-05-15T01:51:48.619Z,1008.68
2018-05-15T01:52:14.752Z,1008.68
2018-05-15T01:52:40.918Z,1008.64
2018-05-15T01:53:07.104Z,1008.67
2018-05-15T01:53:33.241Z,1008.65
2018-05-15T01:53:59.374Z,1008.65
2018-05-15T01:54:25.541Z,1008.63
2018-05-15T01:54:51.722Z,1008.66
2018-05-15T01:55:17.858Z,1008.66
2018-05-15T01:55:44.006Z,1008.64
2018-05-15T01:56:10.169Z,1008.63
2018-05-15T01:56:36.306Z,1008.65
2018-05-15T01:57:02.448Z,1008.64
2018-05-15T01:57:28.586Z,1008.66
2018-05-15T01:57:54.731Z,1008.64
2018-05-15T01:58:20.873Z,1008.66
2018-05-15T01:58:47.006Z,1008.68
2018-05-15T01:59:13.151Z,1008.65
2018-05-15T01:59:39.290Z,1008.64
2018-05-15T02:00:05.424Z,1008.65
2018-05-15T02:00:31.564Z,1008.67
2018-05-15T02:00:57.724Z,1008.64
2018-05-15T02:01:23.864Z,1008.69
2018-05-15T02:01:50.023Z,1008.66
2018-05-15T02:02:16.187Z,1008.67
2018-05-15T02:02:42.329Z,1008.68
2018-05-15T02:03:08.495Z,1008.69
2018-05-15T02:03:34.637Z,1008.67
2018-05-15T02:04:00.800Z,1008.65
2018-05-15T02:04:26.960Z,1008.68
2018-05-15T02:04:53.122Z,1008.69
2018-05-15T02:05:19.266Z,1008.7
2018-05-15T02:05:45.405Z,1008.68
2018-05-15T02:06:11.546Z,1008.66
2018-05-15T02:06:37.685Z,1008.68
2018-05-15T02:07:03.828Z,1008.66
2018-05-15T02:07:29.966Z,1008.66
2018-05-15T02:07:56.099Z,1008.63
2018-05-15T02:08:22.236Z,1008.67
2018-05-15T02:08:48.373Z,1008.66
2018-05-15T02:09:14.513Z,1008.69
2018-05-15T02:09:40.652Z,1008.68
2018-05-15T02:10:06.793Z,1008.68
2018-05-15T02:10:32.934Z,1008.71
2018-05-15T02:10:59.070Z,1008.7
2018-05-15T02:11:25.206Z,1008.73
2018-05-15T02:11:51.344Z,1008.69
2018-05-15T02:12:17.490Z,1008.72
2018-05-15T02:12:43.623Z,1008.68
2018-05-15T02:13:09.762Z,1008.66
2018-05-15T02:13:35.896Z,1008.71
2018-05-15T02:14:02.045Z,1008.69
2018-05-15T02:14:28.178Z,1008.71
2018-05-15T02:14:54.316Z,1008.72
2018-05-15T02:15:20.467Z,1008.7
2018-05-15T02:15:46.597Z,1008.67
2018-05-15T02:16:12.848Z,1008.68
2018-05-15T02:16:38.906Z,1008.66
2018-05-15T02:17:05.053Z,1008.72
2018-05-15T02:17:31.182Z,1008.69
2018-05-15T02:17:57.322Z,1008.71
2018-05-15T02:18:23.491Z,1008.67
2018-05-15T02:18:49.658Z,1008.67
2018-05-15T02:19:15.801Z,1008.7
2018-05-15T02:19:41.993Z,1008.66
2018-05-15T02:20:08.129Z,1008.71
2018-05-15T02:20:34.276Z,1008.69
2018-05-15T02:21:00.408Z,1008.7
2018-05-15T02:21:26.555Z,1008.69
2018-05-15T02:21:52.696Z,1008.72
2018-05-15T02:22:18.867Z,1008.7
2018-05-15T02:22:45.002Z,1008.73
2018-05-15T02:23:11.137Z,1008.74
2018-05-15T02:23:37.276Z,1008.74
2018-05-15T02:24:03.419Z,1008.76
2018-05-15T02:24:29.568Z,1008.72
2018-05-15T02:24:55.704Z,1008.76
2018-05-15T02:25:21.855Z,1008.77
2018-05-15T02:25:47.999Z,1008.77
2018-05-15T02:26:14.136Z,1008.81
2018-05-15T02:26:40.277Z,1008.81
2018-05-15T02:27:06.420Z,1008.82
2018-05-15T02:27:32.563Z,1008.85
2018-05-15T02:27:58.718Z,1008.81
2018-05-15T02:28:24.863Z,1008.82
2018-05-15T02:28:51.010Z,1008.87
2018-05-15T02:29:17.144Z,1008.81
2018-05-15T02:29:43.287Z,1008.85
2018-05-15T02:30:09.419Z,1008.82
2018-05-15T02:30:35.632Z,1008.85
2018-05-15T02:31:01.700Z,1008.87
2018-05-15T02:31:27.889Z,1008.83
2018-05-15T02:31:54.029Z,1008.86
2018-05-15T02:32:20.197Z,1008.86
2018-05-15T02:32:46.354Z,1008.89
2018-05-15T02:33:12.536Z,1008.85
2018-05-15T02:33:38.725Z,1008.87
2018-05-15T02:34:04.910Z,1008.87
2018-05-15T02:34:31.076Z,1008.86
2018-05-15T02:34:57.255Z,1008.84
2018-05-15T02:35:23.420Z,1008.88
2018-05-15T02:35:49.559Z,1008.88
2018-05-15T02:36:15.760Z,1008.88
2018-05-15T02:36:41.924Z,1008.86
2018-05-15T02:37:08.083Z,1008.88
2018-05-15T02:37:34.250Z,1008.86
2018-05-15T02:38:00.417Z,1008.89
2018-05-15T02:38:26.603Z,1008.88
2018-05-15T02:38:52.757Z,1008.9
2018-05-15T02:39:18.903Z,1008.87
2018-05-15T02:39:45.095Z,1008.84
2018-05-15T02:40:11.273Z,1008.87
2018-05-15T02:40:37.424Z,1008.87
2018-05-15T02:41:03.636Z,1008.9
2018-05-15T02:41:29.808Z,1008.85
2018-05-15T02:41:55.968Z,1008.86
2018-05-15T02:42:22.108Z,1008.85
2018-05-15T02:42:48.285Z,1008.87
2018-05-15T02:43:14.434Z,1008.84
2018-05-15T02:43:40.599Z,1008.89
2018-05-15T02:44:06.790Z,1008.85
2018-05-15T02:44:32.933Z,1008.87
2018-05-15T02:44:59.096Z,1008.83
2018-05-15T02:45:25.253Z,1008.87
2018-05-15T02:45:51.395Z,1008.87
2018-05-15T02:46:17.531Z,1008.85
2018-05-15T02:46:43.674Z,1008.88
2018-05-15T02:47:09.835Z,1008.87
2018-05-15T02:47:36.024Z,1008.88
2018-05-15T02:48:02.182Z,1008.85
2018-05-15T02:48:28.317Z,1008.86
2018-05-15T02:48:54.529Z,1008.87
2018-05-15T02:49:20.720Z,1008.84
2018-05-15T02:49:46.887Z,1008.85
2018-05-15T02:50:13.021Z,1008.85
2018-05-15T02:50:39.177Z,1008.84
2018-05-15T02:51:05.320Z,1008.87
2018-05-15T02:51:31.490Z,1008.86
2018-05-15T02:51:57.693Z,1008.88
2018-05-15T02:52:23.838Z,1008.87
2018-05-15T02:52:50.029Z,1008.9
2018-05-15T02:53:16.164Z,1008.89
2018-05-15T02:53:42.376Z,1008.91
2018-05-15T02:54:08.524Z,1008.87
2018-05-15T02:54:34.704Z,1008.89
2018-05-15T02:55:00.847Z,1008.9
2018-05-15T02:55:26.973Z,1008.93
2018-05-15T02:55:53.122Z,1008.93
2018-05-15T02:56:19.247Z,1008.94
2018-05-15T02:56:45.397Z,1008.92
2018-05-15T02:57:11.544Z,1008.93
2018-05-15T02:57:37.690Z,1008.91
2018-05-15T02:58:03.836Z,1008.92
2018-05-15T02:58:29.995Z,1008.94
2018-05-15T02:58:56.171Z,1008.92
2018-05-15T02:59:22.333Z,1008.93
2018-05-15T02:59:48.522Z,1008.92
2018-05-15T03:00:14.760Z,1008.95
2018-05-15T03:00:41.074Z,1008.95
2018-05-15T03:01:07.356Z,1008.94
2018-05-15T03:01:33.568Z,1008.94
2018-05-15T03:01:59.985Z,1008.92
2018-05-15T03:02:26.132Z,1008.93
2018-05-15T03:02:52.503Z,1008.95
2018-05-15T03:03:18.725Z,1008.95
2018-05-15T03:03:44.961Z,1008.92
2018-05-15T03:04:11.193Z,1008.96
2018-05-15T03:04:37.477Z,1008.94
2018-05-15T03:05:03.842Z,1008.96
2018-05-15T03:05:30.123Z,1008.96
2018-05-15T03:05:56.267Z,1008.94
2018-05-15T03:06:22.411Z,1008.92
2018-05-15T03:06:48.598Z,1008.92
2018-05-15T03:07:14.774Z,1008.91
2018-05-15T03:07:40.922Z,1008.96
2018-05-15T03:08:07.076Z,1008.94
2018-05-15T03:08:33.225Z,1008.94
2018-05-15T03:08:59.388Z,1008.96
2018-05-15T03:09:25.530Z,1008.94
2018-05-15T03:09:51.746Z,1008.95
2018-05-15T03:10:17.929Z,1008.95
2018-05-15T03:10:44.112Z,1008.96
2018-05-15T03:11:10.275Z,1008.95
2018-05-15T03:11:36.530Z,1008.96
2018-05-15T03:12:02.577Z,1008.92
2018-05-15T03:12:28.722Z,1008.95
2018-05-15T03:12:54.903Z,1008.97
2018-05-15T03:13:21.067Z,1008.95
2018-05-15T03:13:47.253Z,1008.96
2018-05-15T03:14:13.389Z,1008.98
2018-05-15T03:14:39.549Z,1009.01
2018-05-15T03:15:05.715Z,1009
2018-05-15T03:15:31.852Z,1009
2018-05-15T03:15:57.995Z,1009.01
2018-05-15T03:16:24.143Z,1009
2018-05-15T03:16:50.321Z,1008.96
2018-05-15T03:17:16.477Z,1009.01
2018-05-15T03:17:42.636Z,1009
2018-05-15T03:18:08.780Z,1009.02
2018-05-15T03:18:34.924Z,1009
2018-05-15T03:19:01.062Z,1009
2018-05-15T03:19:27.194Z,1008.99
2018-05-15T03:19:53.348Z,1009.01
2018-05-15T03:20:19.481Z,1009.02
2018-05-15T03:20:45.627Z,1009.01
2018-05-15T03:21:11.759Z,1009.01
2018-05-15T03:21:37.902Z,1009
2018-05-15T03:22:04.044Z,1009.02
2018-05-15T03:22:30.181Z,1009.04
2018-05-15T03:22:56.322Z,1009.04
2018-05-15T03:23:22.489Z,1009.05
2018-05-15T03:23:48.642Z,1008.99
2018-05-15T03:24:14.785Z,1009.01
2018-05-15T03:24:40.924Z,1009.01
2018-05-15T03:25:07.066Z,1009.04
2018-05-15T03:25:33.241Z,1009.04
2018-05-15T03:25:59.376Z,1009.06
2018-05-15T03:26:25.512Z,1009.03
2018-05-15T03:26:51.659Z,1009.03
2018-05-15T03:27:17.794Z,1009.06
2018-05-15T03:27:43.934Z,1009
2018-05-15T03:28:10.068Z,1009.04
2018-05-15T03:28:36.230Z,1009.04
2018-05-15T03:29:02.370Z,1009.06
2018-05-15T03:29:28.515Z,1009.02
2018-05-15T03:29:54.652Z,1009.04
2018-05-15T03:30:20.816Z,1009.05
2018-05-15T03:30:46.984Z,1009.05
2018-05-15T03:31:13.147Z,1009.03
2018-05-15T03:31:39.344Z,1009.03
2018-05-15T03:32:05.505Z,1009.01
2018-05-15T03:32:31.632Z,1009.01
2018-05-15T03:32:57.773Z,1009.03
2018-05-15T03:33:23.943Z,1009.03
2018-05-15T03:33:50.106Z,1009.02
2018-05-15T03:34:16.246Z,1009.04
2018-05-15T03:34:42.383Z,1009.03
2018-05-15T03:35:08.517Z,1009.03
2018-05-15T03:35:34.657Z,1009.02
2018-05-15T03:36:00.801Z,1009.02
2018-05-15T03:36:26.937Z,1009.04
2018-05-15T03:36:53.074Z,1008.99
2018-05-15T03:37:19.216Z,1009.03
2018-05-15T03:37:45.359Z,1009.01
2018-05-15T03:38:11.496Z,1009.06
2018-05-15T03:38:37.628Z,1009.01
2018-05-15T03:39:03.774Z,1009.02
2018-05-15T03:39:29.913Z,1009.01
2018-05-15T03:39:56.059Z,1009.05
2018-05-15T03:40:22.247Z,1009
2018-05-15T03:40:48.418Z,1009.02
2018-05-15T03:41:14.560Z,1008.99
2018-05-15T03:41:40.701Z,1009.03
2018-05-15T03:42:06.837Z,1009
2018-05-15T03:42:32.976Z,1009.01
2018-05-15T03:42:59.136Z,1009.02
2018-05-15T03:43:25.285Z,1009.01
2018-05-15T03:43:51.422Z,1009
2018-05-15T03:44:17.603Z,1009.02
2018-05-15T03:44:43.739Z,1008.98
2018-05-15T03:45:09.879Z,1009.02
2018-05-15T03:45:36.016Z,1008.98
2018-05-15T03:46:02.159Z,1008.99
2018-05-15T03:46:28.301Z,1009.01
2018-05-15T03:46:54.435Z,1009.01
2018-05-15T03:47:20.571Z,1008.99
2018-05-15T03:47:46.708Z,1009.01
2018-05-15T03:48:12.848Z,1008.98
2018-05-15T03:48:38.989Z,1008.97
2018-05-15T03:49:05.133Z,1009.02
2018-05-15T03:49:31.267Z,1009.01
2018-05-15T03:49:57.409Z,1009.03
2018-05-15T03:50:23.550Z,1008.99
2018-05-15T03:50:49.680Z,1009
2018-05-15T03:51:15.820Z,1009.01
2018-05-15T03:51:41.962Z,1009
2018-05-15T03:52:08.106Z,1009
2018-05-15T03:52:34.242Z,1009
2018-05-15T03:53:00.407Z,1009.01
2018-05-15T03:53:26.548Z,1009.05
2018-05-15T03:53:52.695Z,1009.02
2018-05-15T03:54:18.838Z,1009.07
2018-05-15T03:54:44.991Z,1009.02
2018-05-15T03:55:11.155Z,1009.07
2018-05-15T03:55:37.297Z,1009.06
2018-05-15T03:56:03.442Z,1009.06
2018-05-15T03:56:29.598Z,1009.1
2018-05-15T03:56:55.790Z,1009.08
2018-05-15T03:57:21.929Z,1009.09
2018-05-15T03:57:48.097Z,1009.09
2018-05-15T03:58:14.233Z,1009.13
2018-05-15T03:58:40.372Z,1009.1
2018-05-15T03:59:06.596Z,1009.11
2018-05-15T03:59:32.653Z,1009.09
2018-05-15T03:59:58.793Z,1009.12
2018-05-15T04:00:24.936Z,1009.1
2018-05-15T04:00:51.071Z,1009.13
2018-05-15T04:01:17.256Z,1009.16
2018-05-15T04:01:43.407Z,1009.12
2018-05-15T04:02:09.577Z,1009.11
2018-05-15T04:02:35.736Z,1009.14
2018-05-15T04:03:01.862Z,1009.16
2018-05-15T04:03:28.011Z,1009.15
2018-05-15T04:03:54.145Z,1009.15
2018-05-15T04:04:20.313Z,1009.15
2018-05-15T04:04:46.451Z,1009.14
2018-05-15T04:05:12.592Z,1009.14
2018-05-15T04:05:38.736Z,1009.13
2018-05-15T04:06:04.872Z,1009.12
2018-05-15T04:06:31.020Z,1009.15
2018-05-15T04:06:57.156Z,1009.15
2018-05-15T04:07:23.336Z,1009.14
2018-05-15T04:07:49.476Z,1009.18
2018-05-15T04:08:15.633Z,1009.14
2018-05-15T04:08:41.879Z,1009.18
2018-05-15T04:09:07.917Z,1009.16
2018-05-15T04:09:34.062Z,1009.18
2018-05-15T04:10:00.217Z,1009.17
2018-05-15T04:10:26.355Z,1009.18
2018-05-15T04:10:52.527Z,1009.17
2018-05-15T04:11:18.649Z,1009.17
2018-05-15T04:11:44.814Z,1009.18
2018-05-15T04:12:10.956Z,1009.16
2018-05-15T04:12:37.098Z,1009.18
2018-05-15T04:13:03.245Z,1009.23
2018-05-15T04:13:29.388Z,1009.19
2018-05-15T04:13:55.552Z,1009.18
2018-05-15T04:14:21.719Z,1009.24
2018-05-15T04:14:47.858Z,1009.17
2018-05-15T04:15:13.998Z,1009.23
2018-05-15T04:15:40.154Z,1009.22
2018-05-15T04:16:06.303Z,1009.21
2018-05-15T04:16:32.437Z,1009.22
2018-05-15T04:16:58.572Z,1009.2
2018-05-15T04:17:24.735Z,1009.24
2018-05-15T04:17:50.874Z,1009.22
2018-05-15T04:18:17.039Z,1009.23
2018-05-15T04:18:43.178Z,1009.24
2018-05-15T04:19:09.344Z,1009.26
2018-05-15T04:19:35.478Z,1009.25
2018-05-15T04:20:01.617Z,1009.25
2018-05-15T04:20:27.773Z,1009.28
2018-05-15T04:20:53.922Z,1009.25
2018-05-15T04:21:20.089Z,1009.28
2018-05-15T04:21:46.223Z,1009.26
2018-05-15T04:22:12.388Z,1009.27
2018-05-15T04:22:38.537Z,1009.26
2018-05-15T04:23:04.703Z,1009.27
2018-05-15T04:23:30.843Z,1009.23
2018-05-15T04:23:56.978Z,1009.3
2018-05-15T04:24:23.119Z,1009.26
2018-05-15T04:24:49.258Z,1009.27
2018-05-15T04:25:15.402Z,1009.29
2018-05-15T04:25:41.536Z,1009.29
2018-05-15T04:26:07.684Z,1009.3
2018-05-15T04:26:33.848Z,1009.26
2018-05-15T04:26:59.987Z,1009.28
2018-05-15T04:27:26.134Z,1009.31
2018-05-15T04:27:52.275Z,1009.3
2018-05-15T04:28:18.555Z,1009.28
2018-05-15T04:28:44.597Z,1009.3
2018-05-15T04:29:10.767Z,1009.27
2018-05-15T04:29:36.907Z,1009.29
2018-05-15T04:30:03.067Z,1009.28
2018-05-15T04:30:29.202Z,1009.31
2018-05-15T04:30:55.346Z,1009.31
2018-05-15T04:31:21.481Z,1009.32
2018-05-15T04:31:47.627Z,1009.33
2018-05-15T04:32:13.760Z,1009.34
2018-05-15T04:32:39.894Z,1009.29
2018-05-15T04:33:06.038Z,1009.33
2018-05-15T04:33:32.179Z,1009.33
2018-05-15T04:33:58.324Z,1009.32
2018-05-15T04:34:24.453Z,1009.31
2018-05-15T04:34:50.651Z,1009.32
2018-05-15T04:35:16.896Z,1009.29
2018-05-15T04:35:43.002Z,1009.32
2018-05-15T04:36:09.142Z,1009.27
2018-05-15T04:36:35.317Z,1009.32
2018-05-15T04:37:01.566Z,1009.33
2018-05-15T04:37:27.630Z,1009.3
2018-05-15T04:37:53.794Z,1009.32
2018-05-15T04:38:19.930Z,1009.31
2018-05-15T04:38:46.070Z,1009.3
2018-05-15T04:39:12.211Z,1009.33
2018-05-15T04:39:38.345Z,1009.36
2018-05-15T04:40:04.487Z,1009.37
2018-05-15T04:40:30.626Z,1009.34
2018-05-15T04:40:56.766Z,1009.36
2018-05-15T04:41:22.909Z,1009.35
2018-05-15T04:41:49.052Z,1009.34
2018-05-15T04:42:15.190Z,1009.3
2018-05-15T04:42:41.333Z,1009.32
2018-05-15T04:43:07.474Z,1009.36
2018-05-15T04:43:33.691Z,1009.36
2018-05-15T04:43:59.819Z,1009.36
2018-05-15T04:44:25.949Z,1009.39
2018-05-15T04:44:52.077Z,1009.39
2018-05-15T04:45:18.249Z,1009.35
2018-05-15T04:45:44.390Z,1009.4
2018-05-15T04:46:10.529Z,1009.42
2018-05-15T04:46:36.671Z,1009.43
2018-05-15T04:47:02.835Z,1009.43
2018-05-15T04:47:28.993Z,1009.43
2018-05-15T04:47:55.162Z,1009.41
2018-05-15T04:48:21.293Z,1009.41
2018-05-15T04:48:47.439Z,1009.39
2018-05-15T04:49:13.583Z,1009.43
2018-05-15T04:49:39.754Z,1009.43
2018-05-15T04:50:05.917Z,1009.4
2018-05-15T04:50:32.052Z,1009.42
2018-05-15T04:50:58.220Z,1009.43
2018-05-15T04:51:24.354Z,1009.44
2018-05-15T04:51:50.497Z,1009.43
2018-05-15T04:52:16.634Z,1009.42
2018-05-15T04:52:42.781Z,1009.43
2018-05-15T04:53:08.919Z,1009.4
2018-05-15T04:53:35.064Z,1009.42
2018-05-15T04:54:01.196Z,1009.43
2018-05-15T04:54:27.335Z,1009.43
2018-05-15T04:54:53.501Z,1009.43
2018-05-15T04:55:19.637Z,1009.43
2018-05-15T04:55:45.913Z,1009.43
2018-05-15T04:56:11.955Z,1009.47
2018-05-15T04:56:38.099Z,1009.45
2018-05-15T04:57:04.233Z,1009.46
2018-05-15T04:57:30.372Z,1009.48
2018-05-15T04:57:56.509Z,1009.48
2018-05-15T04:58:22.667Z,1009.44
2018-05-15T04:58:48.810Z,1009.49
2018-05-15T04:59:14.976Z,1009.5
2018-05-15T04:59:41.118Z,1009.52
2018-05-15T05:00:07.286Z,1009.51
2018-05-15T05:00:33.430Z,1009.5
2018-05-15T05:00:59.592Z,1009.54
2018-05-15T05:01:25.736Z,1009.54
2018-05-15T05:01:51.929Z,1009.55
2018-05-15T05:02:18.025Z,1009.53
2018-05-15T05:02:44.177Z,1009.56
2018-05-15T05:03:10.312Z,1009.56
2018-05-15T05:03:36.459Z,1009.57
2018-05-15T05:04:02.605Z,1009.52
2018-05-15T05:04:28.763Z,1009.54
2018-05-15T05:04:54.907Z,1009.57
2018-05-15T05:05:21.044Z,1009.56
2018-05-15T05:05:47.183Z,1009.57
2018-05-15T05:06:13.324Z,1009.54
2018-05-15T05:06:39.473Z,1009.56
2018-05-15T05:07:05.640Z,1009.59
2018-05-15T05:07:31.770Z,1009.56
2018-05-15T05:07:57.907Z,1009.56
2018-05-15T05:08:24.052Z,1009.58
2018-05-15T05:08:50.186Z,1009.57
2018-05-15T05:09:16.351Z,1009.6
2018-05-15T05:09:42.499Z,1009.51
2018-05-15T05:10:08.667Z,1009.54
2018-05-15T05:10:34.800Z,1009.55
2018-05-15T05:11:00.952Z,1009.53
2018-05-15T05:11:27.093Z,1009.51
2018-05-15T05:11:53.312Z,1009.57
2018-05-15T05:12:19.367Z,1009.58
2018-05-15T05:12:45.531Z,1009.58
2018-05-15T05:13:11.703Z,1009.55
2018-05-15T05:13:37.842Z,1009.55
2018-05-15T05:14:03.981Z,1009.55
2018-05-15T05:14:30.124Z,1009.55
2018-05-15T05:14:56.286Z,1009.58
2018-05-15T05:15:22.446Z,1009.63
2018-05-15T05:15:48.590Z,1009.63
2018-05-15T05:16:14.730Z,1009.59
2018-05-15T05:16:40.893Z,1009.63
2018-05-15T05:17:07.081Z,1009.63
2018-05-15T05:17:33.224Z,1009.63